الصفحة الرئيسية
METAR-TAF:

METAR-TAF

مطار :

كراتشي, باكستان

مطار جناح الدولي

دائرة عرض: 24-54N, خط طول: 067-08E, ارتفاع: 21 متر

مراقبة الطقس الحالي

تاريخ ووقت الإصدار 48 دقيقة قبل الساعة 02:55UTC
ريح 6 عقدة من الشمال
درجة الحرارة 13°درجة مئوية
الرطوبة 33%
ضغط 1018 hPa
الرؤية: 3000 متر
العجاج

METAR: OPKC 190255Z 35006KT 3000 HZ NSC 13/M03 Q1018 NOSIG

زمن: 08:43 (03:43 UTC)

توقعات

تاريخ ووقت الإصدار 3ساعات و 13 دقيقة قبل الساعة 00:30UTC
التوقعات صالحة من19 الساعة 03 UTC إلى 19 الساعة 12 UTC
ريح 10 عقدة من الشمال الشرقي تتزايد حتى 20 عقدة
الرؤية: 6000 متر
مؤقت
من 19 الساعة 03 UTC إلى 19 الساعة 06 UTC
ريح عقدة من الشمال
الرؤية: 3000 متر
دخان

TAF: OPKC 190030Z 1903/1912 05010G20KT 6000 NSC TEMPO 1903/1906 00000KT 3000 FU NSC

أرصاد الطقس والتوقعات من أكثر من 4000 مطار (تقارير الطقس للمطار METAR والتنبؤ بالطقس بالمطارTAF).

المحطات المتاحة هي النقط الصفراء والحمراء على الخريطة.

حرك المؤشر فوق النقطة لمعرفة اسم المحطة.

ثم انقر لمعرفة أرصاد وتوقعات الطقس.

لتغيير الخارطة: اضغط على الأزرار الخضراء مع رمز الصليب الأسود للتكبير. على الزر الأخضر مع شرطة للتصغير، أو على الأسهم الخضراء للخرائط المجاورة.


METAR-TAF: